Time;durP1;ratioP1;P1;durP2;ratioP2;P2;SDS_P1;SDS_P2;PMS_P1;PMS_P2;Temp;Humidity;BMP_temperature;BMP_pressure;BME280_temperature;BME280_humidity;BME280_pressure;Samples;Min_cycle;Max_cycle;Signal;HPM_P1;HPM_P2
2024/02/06 00:00:17;;;;;;;;;;;;;;;7.09;80.17;100480.29;107635;1251;98469;-62
2024/02/06 00:03:05;;;;;;;;;;;;;;;7.08;80.07;100467.20;107549;1250;113702;-62
2024/02/06 00:05:35;;;;;;;;;;;;;;;7.04;80.28;100459.07;107616;1251;108150;-62
2024/02/06 00:08:03;;;;;;;;;;;;;;;7.00;80.23;100462.46;107553;1253;108019;-62
2024/02/06 00:10:32;;;;;;;;;;;;;;;6.95;80.21;100472.67;107599;1254;97900;-62
2024/02/06 00:13:00;;;;;;;;;;;;;;;6.91;80.12;100475.63;107626;1250;97730;-62
2024/02/06 00:15:28;;;;;;;;;;;;;;;6.88;80.20;100486.34;107569;1251;110959;-62
2024/02/06 00:17:56;;;;;;;;;;;;;;;6.85;80.01;100485.52;107519;1251;108505;-63
2024/02/06 00:20:25;;;;;;;;;;;;;;;6.83;79.96;100482.14;107473;1254;108462;-63
2024/02/06 00:22:53;;;;;;;;;;;;;;;6.82;79.74;100484.69;107475;1250;97818;-64
2024/02/06 00:25:21;;;;;;;;;;;;;;;6.83;79.66;100473.04;107575;1254;97797;-64
2024/02/06 00:27:49;;;;;;;;;;;;;;;6.85;79.80;100465.42;107558;1251;112351;-64
2024/02/06 00:30:17;;;;;;;;;;;;;;;6.85;79.74;100455.24;107512;1251;108192;-64
2024/02/06 00:32:45;;;;;;;;;;;;;;;6.85;79.55;100455.09;107541;1251;108863;-63
2024/02/06 00:35:14;;;;;;;;;;;;;;;6.85;79.41;100467.02;107493;1253;97822;-62
2024/02/06 00:37:44;;;;;;;;;;;;;;;6.84;79.56;100481.48;107564;1254;97731;-63
2024/02/06 00:40:12;;;;;;;;;;;;;;;6.82;79.42;100501.45;107626;1254;110752;-63
2024/02/06 00:42:41;;;;;;;;;;;;;;;6.83;79.37;100513.70;107642;1256;107947;-62
2024/02/06 00:45:10;;;;;;;;;;;;;;;6.82;79.16;100507.56;107540;1254;108253;-64
2024/02/06 00:47:38;;;;;;;;;;;;;;;6.82;79.26;100495.73;107479;1251;99133;-64
2024/02/06 00:50:06;;;;;;;;;;;;;;;6.82;79.19;100484.85;107503;1254;97823;-65
2024/02/06 00:52:35;;;;;;;;;;;;;;;6.83;79.19;100480.02;107581;1254;111993;-63
2024/02/06 00:55:04;;;;;;;;;;;;;;;6.84;79.31;100477.45;107554;1251;106808;-64
2024/02/06 00:57:32;;;;;;;;;;;;;;;6.87;79.20;100468.96;107577;1251;109352;-64
2024/02/06 01:00:00;;;;;;;;;;;;;;;6.88;79.14;100466.09;107510;1251;97720;-64
2024/02/06 01:02:29;;;;;;;;;;;;;;;6.88;79.19;100467.96;107552;1251;97700;-64
2024/02/06 01:04:57;;;;;;;;;;;;;;;6.85;78.89;100467.34;107560;1251;111466;-61
2024/02/06 01:07:26;;;;;;;;;;;;;;;6.87;79.09;100481.45;107567;1251;108899;-64
2024/02/06 01:09:55;;;;;;;;;;;;;;;6.89;79.21;100480.08;107602;1254;107834;-63
2024/02/06 01:12:23;;;;;;;;;;;;;;;6.92;79.14;100487.57;107546;1251;97732;-62
2024/02/06 01:14:51;;;;;;;;;;;;;;;6.94;78.91;100492.67;107528;1254;97874;-62
2024/02/06 01:17:19;;;;;;;;;;;;;;;6.96;79.10;100496.11;107555;1251;111750;-62
2024/02/06 01:19:47;;;;;;;;;;;;;;;6.98;78.97;100481.67;107595;1253;108450;-63
2024/02/06 01:22:15;;;;;;;;;;;;;;;6.99;78.98;100477.67;107572;1251;106933;-63
2024/02/06 01:24:44;;;;;;;;;;;;;;;7.02;79.02;100491.20;107616;1251;97844;-63
2024/02/06 01:27:12;;;;;;;;;;;;;;;7.03;78.88;100489.13;107627;1251;97858;-64
2024/02/06 01:29:40;;;;;;;;;;;;;;;7.03;78.76;100491.30;107575;1250;111168;-64
2024/02/06 01:32:08;;;;;;;;;;;;;;;7.00;78.72;100486.85;107578;1251;107415;-64
2024/02/06 01:34:36;;;;;;;;;;;;;;;6.99;78.57;100487.55;107534;1252;108309;-63
2024/02/06 01:37:05;;;;;;;;;;;;;;;6.96;78.67;100489.02;107548;1250;98656;-63
2024/02/06 01:39:33;;;;;;;;;;;;;;;6.94;78.41;100504.15;107622;1251;98418;-63
2024/02/06 01:42:03;;;;;;;;;;;;;;;6.91;78.60;100501.69;107604;1254;111556;-63
2024/02/06 01:44:31;;;;;;;;;;;;;;;6.90;78.76;100496.20;107596;1251;106670;-63
2024/02/06 01:46:59;;;;;;;;;;;;;;;6.89;78.77;100491.83;107533;1251;107567;-63
2024/02/06 01:49:28;;;;;;;;;;;;;;;6.89;78.62;100481.02;107472;1254;97903;-64
2024/02/06 01:51:57;;;;;;;;;;;;;;;6.85;78.24;100472.73;107587;1251;97941;-64
2024/02/06 01:54:25;;;;;;;;;;;;;;;6.80;78.24;100462.45;107575;1251;111533;-63
2024/02/06 01:56:54;;;;;;;;;;;;;;;6.74;78.45;100448.94;107581;1254;107743;-63
2024/02/06 01:59:22;;;;;;;;;;;;;;;6.70;78.43;100434.48;107509;1251;108289;-63
2024/02/06 02:01:50;;;;;;;;;;;;;;;6.65;78.41;100429.71;107583;1251;97867;-65
2024/02/06 02:04:19;;;;;;;;;;;;;;;6.62;78.70;100430.31;107627;1254;97834;-62
2024/02/06 02:06:48;;;;;;;;;;;;;;;6.59;78.92;100426.77;107620;1251;111965;-62
2024/02/06 02:09:17;;;;;;;;;;;;;;;6.56;79.13;100436.06;107637;1255;108483;-62
2024/02/06 02:11:46;;;;;;;;;;;;;;;6.55;79.24;100434.95;107580;1254;107077;-62
2024/02/06 02:14:14;;;;;;;;;;;;;;;6.50;79.12;100434.42;107567;1252;97732;-63
2024/02/06 02:16:43;;;;;;;;;;;;;;;6.41;78.78;100423.86;107643;1251;97727;-63
2024/02/06 02:19:11;;;;;;;;;;;;;;;6.36;78.72;100415.69;107600;1251;110694;-63
2024/02/06 02:21:40;;;;;;;;;;;;;;;6.30;78.66;100405.31;107565;1251;107455;-63
2024/02/06 02:24:09;;;;;;;;;;;;;;;6.24;78.76;100409.30;107566;1254;108337;-63
2024/02/06 02:26:39;;;;;;;;;;;;;;;6.21;78.76;100404.40;107587;1253;97848;-62
2024/02/06 02:29:07;;;;;;;;;;;;;;;6.19;78.90;100408.06;107696;1251;97710;-63
2024/02/06 02:31:39;;;;;;;;;;;;;;;6.13;79.38;100422.80;107549;1251;112325;-63
2024/02/06 02:34:09;;;;;;;;;;;;;;;6.03;78.97;100413.73;107540;1254;107728;-63
2024/02/06 02:36:40;;;;;;;;;;;;;;;6.00;79.05;100407.00;107513;1251;109576;-63
2024/02/06 02:39:09;;;;;;;;;;;;;;;5.95;79.65;100425.70;107599;1255;97834;-61
2024/02/06 02:41:37;;;;;;;;;;;;;;;5.86;79.52;100414.05;107611;1254;97832;-62
2024/02/06 02:44:08;;;;;;;;;;;;;;;5.85;79.91;100423.73;107607;1253;110517;-63
2024/02/06 02:46:36;;;;;;;;;;;;;;;5.79;79.97;100423.51;107634;1254;108079;-62
2024/02/06 02:49:05;;;;;;;;;;;;;;;5.78;80.25;100413.74;107535;1251;108254;-62
2024/02/06 02:51:33;;;;;;;;;;;;;;;5.82;81.09;100412.77;107570;1250;97899;-62
2024/02/06 02:54:01;;;;;;;;;;;;;;;5.80;80.67;100413.95;107596;1251;97819;-63
2024/02/06 02:56:30;;;;;;;;;;;;;;;5.81;80.70;100404.48;107640;1251;110877;-63
2024/02/06 02:58:58;;;;;;;;;;;;;;;5.88;81.67;100406.27;107649;1250;109081;-64
2024/02/06 03:01:26;;;;;;;;;;;;;;;5.95;81.62;100405.20;107569;1254;108412;-63
2024/02/06 03:03:55;;;;;;;;;;;;;;;5.98;81.37;100402.52;107590;1250;97966;-64
2024/02/06 03:06:23;;;;;;;;;;;;;;;6.02;81.42;100397.84;107675;1250;97703;-64
2024/02/06 03:08:52;;;;;;;;;;;;;;;6.01;81.11;100401.44;107640;1253;111357;-64
2024/02/06 03:11:20;;;;;;;;;;;;;;;6.01;81.36;100401.08;107561;1255;107286;-64
2024/02/06 03:13:50;;;;;;;;;;;;;;;6.02;81.06;100409.05;107549;1252;107769;-63
2024/02/06 03:16:18;;;;;;;;;;;;;;;5.98;80.88;100413.40;107615;1254;97934;-63
2024/02/06 03:18:46;;;;;;;;;;;;;;;5.93;80.55;100409.42;107639;1251;97835;-62
2024/02/06 03:21:14;;;;;;;;;;;;;;;5.90;80.49;100416.41;107617;1251;111038;-63
2024/02/06 03:23:42;;;;;;;;;;;;;;;5.86;80.50;100413.88;107626;1251;109172;-64
2024/02/06 03:26:10;;;;;;;;;;;;;;;5.84;80.67;100414.96;107576;1251;107566;-64
2024/02/06 03:28:38;;;;;;;;;;;;;;;5.80;80.54;100414.51;107599;1250;98008;-63
2024/02/06 03:31:07;;;;;;;;;;;;;;;5.76;80.76;100416.77;107646;1254;97707;-63
2024/02/06 03:33:35;;;;;;;;;;;;;;;5.70;80.60;100418.44;107578;1254;110893;-63
2024/02/06 03:36:05;;;;;;;;;;;;;;;5.64;80.51;100413.93;107593;1251;106467;-64
2024/02/06 03:38:33;;;;;;;;;;;;;;;5.59;80.79;100420.14;107670;1254;106430;-62
2024/02/06 03:41:01;;;;;;;;;;;;;;;5.52;80.65;100419.40;107653;1251;97717;-63
2024/02/06 03:43:29;;;;;;;;;;;;;;;5.47;80.54;100420.44;107583;1251;97799;-62
2024/02/06 03:45:58;;;;;;;;;;;;;;;5.44;80.63;100426.70;107602;1251;111031;-62
2024/02/06 03:48:26;;;;;;;;;;;;;;;5.43;80.66;100431.64;107486;1251;108212;-63
2024/02/06 03:50:54;;;;;;;;;;;;;;;5.37;80.46;100424.05;107613;1254;107347;-62
2024/02/06 03:53:23;;;;;;;;;;;;;;;5.31;80.38;100420.17;107583;1251;97978;-62
2024/02/06 03:55:51;;;;;;;;;;;;;;;5.27;80.54;100424.58;107636;1251;97950;-62
2024/02/06 03:58:20;;;;;;;;;;;;;;;5.23;80.43;100429.49;107584;1251;112032;-62
2024/02/06 04:00:52;;;;;;;;;;;;;;;5.19;80.31;100424.98;107644;1254;108697;-62
2024/02/06 04:03:20;;;;;;;;;;;;;;;5.15;80.10;100414.42;107565;1251;107197;-68
2024/02/06 04:05:49;;;;;;;;;;;;;;;5.11;80.24;100417.72;107549;1254;97876;-62
2024/02/06 04:08:17;;;;;;;;;;;;;;;5.10;80.65;100405.34;107639;1251;97728;-62
2024/02/06 04:10:46;;;;;;;;;;;;;;;5.09;80.61;100401.49;107611;1251;111681;-63
2024/02/06 04:13:14;;;;;;;;;;;;;;;5.06;80.54;100398.73;107568;1254;108239;-63
2024/02/06 04:15:43;;;;;;;;;;;;;;;5.00;80.21;100396.11;107574;1250;108772;-63
2024/02/06 04:18:11;;;;;;;;;;;;;;;4.92;80.00;100412.98;107555;1251;97842;-63
2024/02/06 04:20:40;;;;;;;;;;;;;;;4.81;79.94;100397.77;107618;1251;97717;-63
2024/02/06 04:23:08;;;;;;;;;;;;;;;4.75;80.05;100411.52;107597;1251;111856;-64
2024/02/06 04:25:36;;;;;;;;;;;;;;;4.67;80.16;100411.35;107593;1254;107402;-62
2024/02/06 04:28:05;;;;;;;;;;;;;;;4.59;79.95;100414.77;107660;1251;107234;-63
2024/02/06 04:30:33;;;;;;;;;;;;;;;4.50;79.85;100417.50;107597;1251;97729;-63
2024/02/06 04:33:02;;;;;;;;;;;;;;;4.42;80.15;100425.69;107571;1251;97713;-64
2024/02/06 04:35:30;;;;;;;;;;;;;;;4.32;79.77;100424.60;107628;1251;112087;-63
2024/02/06 04:37:59;;;;;;;;;;;;;;;4.26;80.01;100421.08;107630;1256;107461;-62
2024/02/06 04:40:27;;;;;;;;;;;;;;;4.20;79.92;100422.20;107525;1254;108384;-68
2024/02/06 04:42:55;;;;;;;;;;;;;;;4.15;80.33;100417.19;107606;1251;97818;-63
2024/02/06 04:45:24;;;;;;;;;;;;;;;4.10;80.15;100425.70;107596;1255;97956;-63
2024/02/06 04:47:53;;;;;;;;;;;;;;;4.09;81.32;100421.85;107622;1251;112143;-64
2024/02/06 04:50:21;;;;;;;;;;;;;;;4.18;81.87;100431.04;107600;1251;108602;-64
2024/02/06 04:52:50;;;;;;;;;;;;;;;4.31;82.61;100429.63;107600;1251;108411;-64
2024/02/06 04:55:18;;;;;;;;;;;;;;;4.46;82.58;100432.38;107630;1251;97835;-64
2024/02/06 04:57:46;;;;;;;;;;;;;;;4.48;81.95;100433.42;107654;1251;98315;-64
2024/02/06 05:00:14;;;;;;;;;;;;;;;4.41;81.14;100433.60;107579;1251;112907;-64
2024/02/06 05:02:43;;;;;;;;;;;;;;;4.33;80.88;100436.56;107534;1251;107855;-63
2024/02/06 05:05:11;;;;;;;;;;;;;;;4.25;80.60;100434.13;107496;1254;108655;-63
2024/02/06 05:07:41;;;;;;;;;;;;;;;4.16;80.54;100434.70;107624;1251;97921;-62
2024/02/06 05:10:10;;;;;;;;;;;;;;;4.07;80.37;100434.41;107626;1251;97994;-63
2024/02/06 05:12:38;;;;;;;;;;;;;;;4.00;80.47;100435.27;107634;1250;111654;-63
2024/02/06 05:15:08;;;;;;;;;;;;;;;3.93;80.67;100432.33;107622;1252;107523;-62
2024/02/06 05:17:36;;;;;;;;;;;;;;;3.97;81.05;100427.83;107576;1251;108191;-63
2024/02/06 05:20:05;;;;;;;;;;;;;;;3.98;81.29;100430.27;107563;1251;97826;-63
2024/02/06 05:22:33;;;;;;;;;;;;;;;3.96;80.91;100429.14;107680;1251;97739;-62
2024/02/06 05:25:01;;;;;;;;;;;;;;;3.90;80.60;100431.13;107620;1251;111624;-61
2024/02/06 05:27:30;;;;;;;;;;;;;;;3.84;80.59;100434.54;107630;1251;107962;-64
2024/02/06 05:29:59;;;;;;;;;;;;;;;3.77;80.43;100431.05;107595;1256;107918;-63
2024/02/06 05:32:27;;;;;;;;;;;;;;;3.71;80.49;100434.09;107548;1251;97918;-64
2024/02/06 05:34:57;;;;;;;;;;;;;;;3.71;80.77;100435.71;107624;1251;97713;-63
2024/02/06 05:37:26;;;;;;;;;;;;;;;3.76;81.81;100438.75;107653;1251;110970;-64
2024/02/06 05:39:54;;;;;;;;;;;;;;;3.90;82.35;100444.92;107633;1251;109035;-63
2024/02/06 05:42:22;;;;;;;;;;;;;;;4.05;83.65;100438.27;107589;1251;108273;-63
2024/02/06 05:44:51;;;;;;;;;;;;;;;4.21;83.00;100441.50;107516;1254;97827;-62
2024/02/06 05:47:19;;;;;;;;;;;;;;;4.18;81.74;100441.14;107546;1256;97826;-62
2024/02/06 05:49:47;;;;;;;;;;;;;;;4.14;81.41;100446.41;107518;1251;112256;-62
2024/02/06 05:52:15;;;;;;;;;;;;;;;4.07;81.00;100444.56;107476;1251;108737;-64
2024/02/06 05:54:43;;;;;;;;;;;;;;;4.06;81.85;100444.63;107444;1251;107765;-64
2024/02/06 05:57:12;;;;;;;;;;;;;;;4.11;81.60;100451.93;107477;1251;97898;-64
2024/02/06 05:59:41;;;;;;;;;;;;;;;4.08;81.54;100441.10;107506;1251;97723;-64
2024/02/06 06:02:08;;;;;;;;;;;;;;;4.02;81.14;100442.92;107499;1251;110926;-64
2024/02/06 06:04:37;;;;;;;;;;;;;;;3.96;80.89;100438.70;107542;1254;108118;-63
2024/02/06 06:07:06;;;;;;;;;;;;;;;3.99;81.44;100438.50;107521;1255;107867;-64
2024/02/06 06:09:34;;;;;;;;;;;;;;;4.03;81.40;100437.89;107511;1251;97727;-63
2024/02/06 06:12:03;;;;;;;;;;;;;;;4.02;81.06;100441.70;107608;1251;97901;-62
2024/02/06 06:14:31;;;;;;;;;;;;;;;3.98;80.91;100442.52;107566;1253;110689;-63
2024/02/06 06:17:00;;;;;;;;;;;;;;;3.94;80.77;100443.96;107527;1251;109069;-63
2024/02/06 06:19:28;;;;;;;;;;;;;;;3.90;80.69;100441.38;107521;1254;107595;-64
2024/02/06 06:21:56;;;;;;;;;;;;;;;3.90;80.90;100448.31;107419;1253;97713;-63
2024/02/06 06:24:24;;;;;;;;;;;;;;;3.89;80.96;100453.67;107533;1251;97816;-63
2024/02/06 06:26:52;;;;;;;;;;;;;;;3.92;80.86;100452.79;107522;1251;110579;-64
2024/02/06 06:29:20;;;;;;;;;;;;;;;3.95;80.85;100450.68;107473;1254;107801;-64
2024/02/06 06:31:48;;;;;;;;;;;;;;;4.00;81.05;100450.66;107521;1251;108259;-63
2024/02/06 06:34:17;;;;;;;;;;;;;;;4.08;81.26;100449.80;107480;1251;98582;-63
2024/02/06 06:36:46;;;;;;;;;;;;;;;4.25;81.65;100451.33;107493;1251;97728;-63
2024/02/06 06:39:16;;;;;;;;;;;;;;;4.34;81.48;100453.73;107403;1251;112363;-63
2024/02/06 06:41:47;;;;;;;;;;;;;;;4.39;81.18;100448.44;107507;1254;107559;-63
2024/02/06 06:44:15;;;;;;;;;;;;;;;4.40;81.07;100449.80;107498;1251;107608;-63
2024/02/06 06:46:46;;;;;;;;;;;;;;;4.42;81.18;100442.27;107499;1251;97840;-63
2024/02/06 06:49:14;;;;;;;;;;;;;;;4.45;81.21;100444.16;107498;1251;97716;-64
2024/02/06 06:51:43;;;;;;;;;;;;;;;4.48;81.13;100443.23;107611;1251;110795;-64
2024/02/06 06:54:11;;;;;;;;;;;;;;;4.51;81.43;100447.13;107673;1251;107959;-62
2024/02/06 06:56:40;;;;;;;;;;;;;;;4.57;81.41;100447.61;107544;1253;108448;-65
2024/02/06 06:59:08;;;;;;;;;;;;;;;4.61;81.41;100451.25;107612;1251;97841;-64
2024/02/06 07:01:37;;;;;;;;;;;;;;;4.65;81.62;100456.60;107580;1251;97829;-63
2024/02/06 07:04:05;;;;;;;;;;;;;;;4.71;81.80;100454.63;107593;1251;112051;-62
2024/02/06 07:06:34;;;;;;;;;;;;;;;4.78;81.94;100457.70;107624;1256;108669;-64
2024/02/06 07:09:06;;;;;;;;;;;;;;;4.84;82.01;100454.78;107585;1251;107691;-63
2024/02/06 07:11:35;;;;;;;;;;;;;;;4.91;81.91;100455.56;107521;1254;97847;-64
2024/02/06 07:14:03;;;;;;;;;;;;;;;4.98;82.13;100459.69;107539;1256;97834;-63
2024/02/06 07:16:32;;;;;;;;;;;;;;;5.07;82.05;100455.69;107619;1251;111167;-62
2024/02/06 07:19:00;;;;;;;;;;;;;;;5.16;82.08;100459.13;107615;1251;106981;-62
2024/02/06 07:21:28;;;;;;;;;;;;;;;5.27;82.45;100458.73;107534;1254;107018;-63
2024/02/06 07:23:56;;;;;;;;;;;;;;;5.41;82.37;100460.78;107661;1251;97842;-62
2024/02/06 07:26:25;;;;;;;;;;;;;;;5.53;82.40;100463.09;107628;1251;97948;-64
2024/02/06 07:28:56;;;;;;;;;;;;;;;5.67;82.59;100462.27;107438;1251;111664;-63
2024/02/06 07:31:24;;;;;;;;;;;;;;;5.89;82.65;100468.30;107472;1251;109461;-63
2024/02/06 07:33:52;;;;;;;;;;;;;;;6.08;82.50;100465.92;107499;1254;107028;-63
2024/02/06 07:36:21;;;;;;;;;;;;;;;6.25;81.64;100463.17;107501;1254;97841;-64
2024/02/06 07:38:49;;;;;;;;;;;;;;;6.44;81.26;100460.73;107538;1251;97909;-62
2024/02/06 07:41:17;;;;;;;;;;;;;;;6.62;81.32;100464.33;107546;1251;111024;-64
2024/02/06 07:43:46;;;;;;;;;;;;;;;6.80;81.09;100465.23;107463;1254;108471;-63
2024/02/06 07:46:14;;;;;;;;;;;;;;;6.96;80.43;100470.81;107582;1251;108316;-63
2024/02/06 07:48:42;;;;;;;;;;;;;;;7.12;80.25;100467.91;107468;1251;97904;-63
2024/02/06 07:51:11;;;;;;;;;;;;;;;7.29;79.70;100482.82;107521;1251;97764;-63
2024/02/06 07:53:41;;;;;;;;;;;;;;;7.50;78.57;100477.25;107465;1254;112027;-62
2024/02/06 07:56:09;;;;;;;;;;;;;;;7.71;78.38;100472.89;107518;1254;108115;-62
2024/02/06 07:58:37;;;;;;;;;;;;;;;7.89;77.88;100463.95;107469;1254;107024;-63
2024/02/06 08:01:06;;;;;;;;;;;;;;;8.07;77.02;100469.04;107542;1256;98008;-63
2024/02/06 08:03:35;;;;;;;;;;;;;;;8.25;75.38;100473.98;107434;1252;97832;-63
2024/02/06 08:06:04;;;;;;;;;;;;;;;8.47;74.61;100465.25;107531;1251;111697;-63
2024/02/06 08:08:32;;;;;;;;;;;;;;;8.65;73.29;100471.20;107546;1251;107808;-62
2024/02/06 08:11:00;;;;;;;;;;;;;;;8.83;73.55;100472.16;107520;1251;108652;-63
2024/02/06 08:13:28;;;;;;;;;;;;;;;8.99;73.74;100473.66;107490;1251;97828;-63
2024/02/06 08:15:56;;;;;;;;;;;;;;;9.17;72.95;100474.26;107569;1251;97729;-62
2024/02/06 08:18:24;;;;;;;;;;;;;;;9.33;73.54;100473.95;107582;1254;110604;-62
2024/02/06 08:20:53;;;;;;;;;;;;;;;9.52;73.43;100476.22;107606;1251;108110;-62
2024/02/06 08:23:22;;;;;;;;;;;;;;;9.70;71.22;100468.55;107620;1252;107814;-65
2024/02/06 08:25:50;;;;;;;;;;;;;;;9.89;69.47;100469.38;107523;1254;97839;-63
2024/02/06 08:28:19;;;;;;;;;;;;;;;10.08;68.42;100464.22;107631;1255;97828;-62
2024/02/06 08:30:49;;;;;;;;;;;;;;;10.30;65.37;100464.96;107610;1251;111459;-63
2024/02/06 08:33:17;;;;;;;;;;;;;;;10.52;65.35;100461.68;107593;1254;107712;-63
2024/02/06 08:35:51;;;;;;;;;;;;;;;10.75;65.00;100459.73;107581;1251;108774;-61
2024/02/06 08:38:19;;;;;;;;;;;;;;;11.02;65.53;100460.73;107615;1250;97831;-61
2024/02/06 08:40:48;;;;;;;;;;;;;;;11.28;64.39;100463.31;107716;1256;97981;-62
2024/02/06 08:43:16;;;;;;;;;;;;;;;11.53;63.81;100462.17;107577;1254;110743;-63
2024/02/06 08:45:46;;;;;;;;;;;;;;;11.77;63.16;100463.58;106742;1251;1115871;-64
2024/02/06 08:48:14;;;;;;;;;;;;;;;11.99;61.61;100461.82;107577;1252;109902;-64
2024/02/06 08:50:43;;;;;;;;;;;;;;;12.22;57.86;100467.30;107581;1251;97759;-65
2024/02/06 08:53:11;;;;;;;;;;;;;;;12.43;57.79;100466.27;107602;1251;97764;-65
2024/02/06 08:55:39;;;;;;;;;;;;;;;12.64;57.27;100469.72;107561;1255;112139;-64
2024/02/06 08:58:08;;;;;;;;;;;;;;;12.84;53.47;100472.11;107624;1256;107690;-65
2024/02/06 09:00:36;;;;;;;;;;;;;;;13.03;53.57;100470.98;107576;1252;107225;-63
2024/02/06 09:03:04;;;;;;;;;;;;;;;13.20;53.28;100475.24;107574;1256;97832;-64
2024/02/06 09:05:33;;;;;;;;;;;;;;;13.45;50.29;100480.23;107583;1251;97694;-64
2024/02/06 09:08:01;;;;;;;;;;;;;;;13.65;51.58;100479.83;107591;1255;112009;-63
2024/02/06 09:10:30;;;;;;;;;;;;;;;13.89;49.52;100477.11;107520;1256;108491;-63
2024/02/06 09:12:58;;;;;;;;;;;;;;;14.19;48.85;100478.76;107579;1254;108711;-64
2024/02/06 09:15:28;;;;;;;;;;;;;;;14.62;50.52;100472.79;107573;1254;97826;-65
2024/02/06 09:17:57;;;;;;;;;;;;;;;15.29;49.93;100471.19;107577;1256;97920;-64
2024/02/06 09:20:26;;;;;;;;;;;;;;;16.22;49.03;100463.98;107543;1254;112341;-64
2024/02/06 09:22:54;;;;;;;;;;;;;;;17.09;43.89;100463.09;107566;1251;107476;-64
2024/02/06 09:25:22;;;;;;;;;;;;;;;17.63;42.61;100459.75;107522;1255;107827;-63
2024/02/06 09:27:51;;;;;;;;;;;;;;;18.24;43.30;100454.27;107620;1255;97906;-63
2024/02/06 09:30:20;;;;;;;;;;;;;;;18.79;42.06;100459.00;107532;1256;97737;-63
2024/02/06 09:32:49;;;;;;;;;;;;;;;19.50;43.73;100456.25;107556;1251;112225;-63
2024/02/06 09:35:17;;;;;;;;;;;;;;;20.16;40.01;100447.55;107621;1251;108614;-63
2024/02/06 09:37:46;;;;;;;;;;;;;;;20.69;39.13;100446.15;107545;1255;106915;-63
2024/02/06 09:40:14;;;;;;;;;;;;;;;21.18;37.50;100441.89;107521;1256;97819;-62
2024/02/06 09:42:43;;;;;;;;;;;;;;;21.65;37.18;100447.25;107589;1256;97844;-62
2024/02/06 09:45:12;;;;;;;;;;;;;;;22.10;36.93;100445.41;107545;1254;111517;-63
2024/02/06 09:47:41;;;;;;;;;;;;;;;22.36;34.11;100440.21;107595;1254;108862;-63
2024/02/06 09:50:09;;;;;;;;;;;;;;;22.58;33.06;100440.36;107594;1251;107601;-63
2024/02/06 09:52:40;;;;;;;;;;;;;;;22.95;34.44;100434.87;107583;1256;97819;-63
2024/02/06 09:55:11;;;;;;;;;;;;;;;23.56;33.77;100432.64;107541;1257;97847;-63
2024/02/06 09:57:40;;;;;;;;;;;;;;;23.79;32.03;100427.67;107620;1257;110841;-63
2024/02/06 10:00:10;;;;;;;;;;;;;;;23.99;32.34;100420.30;107621;1251;108303;-63
2024/02/06 10:02:41;;;;;;;;;;;;;;;24.56;34.55;100415.71;107583;1254;106792;-63
2024/02/06 10:05:15;;;;;;;;;;;;;;;25.17;32.30;100412.81;107616;1251;97790;-62
2024/02/06 10:07:48;;;;;;;;;;;;;;;25.49;32.09;100409.83;107592;1254;97700;-64
2024/02/06 10:10:18;;;;;;;;;;;;;;;25.91;31.49;100403.00;107586;1251;112242;-62
2024/02/06 10:12:46;;;;;;;;;;;;;;;26.00;30.85;100405.39;107594;1251;108558;-64
2024/02/06 10:15:16;;;;;;;;;;;;;;;26.33;30.54;100400.40;107622;1257;108109;-63
2024/02/06 10:17:44;;;;;;;;;;;;;;;26.65;28.85;100395.83;107618;1254;98041;-63
2024/02/06 10:20:13;;;;;;;;;;;;;;;26.68;26.98;100394.05;107520;1254;97789;-63
2024/02/06 10:22:41;;;;;;;;;;;;;;;26.85;29.34;100394.35;107610;1251;110058;-63
2024/02/06 10:25:11;;;;;;;;;;;;;;;27.30;30.28;100384.64;107608;1251;107886;-63
2024/02/06 10:27:40;;;;;;;;;;;;;;;27.64;28.77;100383.23;107658;1256;108569;-63
2024/02/06 10:30:10;;;;;;;;;;;;;;;27.48;25.35;100382.59;107599;1251;97844;-63
2024/02/06 10:32:39;;;;;;;;;;;;;;;27.52;26.64;100379.50;107625;1257;97819;-63
2024/02/06 10:35:08;;;;;;;;;;;;;;;27.74;25.30;100378.64;107595;1257;111983;-64
2024/02/06 10:37:38;;;;;;;;;;;;;;;27.59;23.95;100376.66;107640;1254;107636;-63
2024/02/06 10:40:07;;;;;;;;;;;;;;;27.74;24.49;100377.70;107593;1251;107635;-64
2024/02/06 10:42:36;;;;;;;;;;;;;;;27.71;23.21;100376.34;107643;1252;97825;-63
2024/02/06 10:45:24;;;;;;;;;;;;;;;27.92;24.33;100364.20;107587;1255;97829;-64
2024/02/06 10:47:59;;;;;;;;;;;;;;;28.15;23.54;100362.95;107581;1255;111761;-63
2024/02/06 10:50:29;;;;;;;;;;;;;;;28.37;23.40;100359.58;107601;1256;107372;-63
2024/02/06 10:52:58;;;;;;;;;;;;;;;28.57;23.04;100352.74;107532;1251;108798;-63
2024/02/06 10:55:26;;;;;;;;;;;;;;;28.93;24.16;100348.86;107564;1251;97841;-63
2024/02/06 10:58:15;;;;;;;;;;;;;;;29.39;24.38;100345.17;107500;1252;97873;-64
2024/02/06 11:00:45;;;;;;;;;;;;;;;29.36;21.41;100349.00;107539;1257;112291;-63
2024/02/06 11:03:14;;;;;;;;;;;;;;;29.56;22.87;100341.57;107569;1255;108386;-63
2024/02/06 11:05:52;;;;;;;;;;;;;;;29.87;23.08;100340.29;107571;1251;108596;-63
2024/02/06 11:08:21;;;;;;;;;;;;;;;30.06;21.84;100348.54;107434;1251;99277;-63
2024/02/06 11:10:51;;;;;;;;;;;;;;;30.03;21.32;100342.54;107525;1254;97837;-62
2024/02/06 11:13:23;;;;;;;;;;;;;;;29.79;20.15;100337.55;107583;1254;110735;-63
2024/02/06 11:15:55;;;;;;;;;;;;;;;29.15;19.42;100336.89;107569;1256;108929;-63
2024/02/06 11:18:26;;;;;;;;;;;;;;;28.86;20.98;100331.56;107545;1254;108553;-62
2024/02/06 11:20:57;;;;;;;;;;;;;;;28.69;21.63;100325.38;107550;1254;98479;-63
2024/02/06 11:23:26;;;;;;;;;;;;;;;28.73;22.36;100318.09;107555;1251;97900;-62
2024/02/06 11:25:54;;;;;;;;;;;;;;;29.07;22.11;100309.89;107569;1251;111515;-63
2024/02/06 11:28:23;;;;;;;;;;;;;;;29.53;22.59;100309.09;107647;1255;108310;-63
2024/02/06 11:30:55;;;;;;;;;;;;;;;29.98;22.43;100305.82;107551;1253;108358;-62
2024/02/06 11:33:29;;;;;;;;;;;;;;;30.10;22.46;100298.77;107682;1256;98592;-62
2024/02/06 11:36:14;;;;;;;;;;;;;;;29.84;21.38;100291.77;107629;1254;97937;-63
2024/02/06 11:38:44;;;;;;;;;;;;;;;29.31;20.74;100293.23;107588;1254;111864;-63
2024/02/06 11:41:13;;;;;;;;;;;;;;;28.84;20.87;100281.35;107579;1251;109656;-63
2024/02/06 11:43:44;;;;;;;;;;;;;;;28.73;22.22;100281.34;107500;1251;107344;-62
2024/02/06 11:46:13;;;;;;;;;;;;;;;29.04;22.32;100279.58;107605;1251;97702;-63
2024/02/06 11:48:42;;;;;;;;;;;;;;;29.19;22.23;100277.69;107581;1251;99254;-63
2024/02/06 11:51:11;;;;;;;;;;;;;;;29.28;22.64;100274.73;107467;1251;112148;-61
2024/02/06 11:53:40;;;;;;;;;;;;;;;29.34;22.21;100260.25;107683;1254;107798;-61
2024/02/06 11:56:09;;;;;;;;;;;;;;;29.02;20.99;100255.80;107638;1254;108072;-63
2024/02/06 11:58:37;;;;;;;;;;;;;;;28.47;21.94;100253.46;107599;1253;97951;-62
2024/02/06 12:01:06;;;;;;;;;;;;;;;28.26;22.78;100250.14;107601;1254;97823;-63
2024/02/06 12:03:35;;;;;;;;;;;;;;;28.01;22.16;100243.23;107629;1251;113114;-63
2024/02/06 12:06:04;;;;;;;;;;;;;;;27.68;22.89;100241.02;107550;1251;109596;-63
2024/02/06 12:08:34;;;;;;;;;;;;;;;27.45;23.36;100239.55;107609;1251;107827;-62
2024/02/06 12:11:04;;;;;;;;;;;;;;;27.43;23.47;100231.58;107575;1251;97899;-62
2024/02/06 12:13:34;;;;;;;;;;;;;;;27.43;23.32;100229.19;107538;1251;97847;-64
2024/02/06 12:16:05;;;;;;;;;;;;;;;27.33;23.11;100227.31;107521;1251;111940;-61
2024/02/06 12:18:33;;;;;;;;;;;;;;;27.16;23.78;100223.40;107632;1251;108514;-61
2024/02/06 12:21:01;;;;;;;;;;;;;;;27.03;23.83;100219.46;107608;1254;106924;-63
2024/02/06 12:23:30;;;;;;;;;;;;;;;26.82;23.78;100215.74;107656;1254;97838;-62
2024/02/06 12:25:59;;;;;;;;;;;;;;;26.64;24.67;100213.08;107736;1254;97934;-62
2024/02/06 12:28:28;;;;;;;;;;;;;;;26.52;23.92;100205.42;107685;1254;112849;-60
2024/02/06 12:30:59;;;;;;;;;;;;;;;26.41;23.94;100204.79;107598;1254;108233;-63
2024/02/06 12:33:32;;;;;;;;;;;;;;;26.21;24.60;100204.81;107493;1251;107763;-62
2024/02/06 12:36:02;;;;;;;;;;;;;;;25.85;22.99;100205.29;107569;1254;97843;-62